sensor_id;sensor_type;location;lat;lon;timestamp;temperature;humidity
15407;DHT22;7802;51.568;6.364;2022-07-17T00:01:00;13.40;99.90
15407;DHT22;7802;51.568;6.364;2022-07-17T00:03:28;13.30;99.90
15407;DHT22;7802;51.568;6.364;2022-07-17T00:05:57;13.20;99.90
15407;DHT22;7802;51.568;6.364;2022-07-17T00:08:25;13.30;99.90
15407;DHT22;7802;51.568;6.364;2022-07-17T00:10:53;13.30;99.90
15407;DHT22;7802;51.568;6.364;2022-07-17T00:13:22;13.30;99.90
15407;DHT22;7802;51.568;6.364;2022-07-17T00:15:51;13.30;99.90
15407;DHT22;7802;51.568;6.364;2022-07-17T00:18:19;13.30;99.90
15407;DHT22;7802;51.568;6.364;2022-07-17T00:20:48;13.30;99.90
15407;DHT22;7802;51.568;6.364;2022-07-17T00:23:16;13.30;99.90
15407;DHT22;7802;51.568;6.364;2022-07-17T00:25:44;13.30;99.90
15407;DHT22;7802;51.568;6.364;2022-07-17T00:28:13;13.30;99.90
15407;DHT22;7802;51.568;6.364;2022-07-17T00:30:43;13.20;99.90
15407;DHT22;7802;51.568;6.364;2022-07-17T00:33:11;13.10;99.90
15407;DHT22;7802;51.568;6.364;2022-07-17T00:35:40;13.20;99.90
15407;DHT22;7802;51.568;6.364;2022-07-17T00:38:09;13.10;99.90
15407;DHT22;7802;51.568;6.364;2022-07-17T00:40:37;13.10;99.90
15407;DHT22;7802;51.568;6.364;2022-07-17T00:43:06;13.10;99.90
15407;DHT22;7802;51.568;6.364;2022-07-17T00:45:34;13.00;99.90
15407;DHT22;7802;51.568;6.364;2022-07-17T00:48:06;13.00;99.90
15407;DHT22;7802;51.568;6.364;2022-07-17T00:50:38;12.90;99.90
15407;DHT22;7802;51.568;6.364;2022-07-17T00:53:08;13.00;99.90
15407;DHT22;7802;51.568;6.364;2022-07-17T00:55:39;12.90;99.90
15407;DHT22;7802;51.568;6.364;2022-07-17T00:58:10;13.70;99.90
15407;DHT22;7802;51.568;6.364;2022-07-17T01:00:38;12.80;99.90
15407;DHT22;7802;51.568;6.364;2022-07-17T01:03:08;13.30;99.90
15407;DHT22;7802;51.568;6.364;2022-07-17T01:05:37;12.70;99.90
15407;DHT22;7802;51.568;6.364;2022-07-17T01:08:06;13.90;99.90
15407;DHT22;7802;51.568;6.364;2022-07-17T01:10:35;13.40;99.90
15407;DHT22;7802;51.568;6.364;2022-07-17T01:13:03;13.30;99.90
15407;DHT22;7802;51.568;6.364;2022-07-17T01:15:33;12.60;99.90
15407;DHT22;7802;51.568;6.364;2022-07-17T01:18:04;12.70;99.90
15407;DHT22;7802;51.568;6.364;2022-07-17T01:20:36;12.60;99.90
15407;DHT22;7802;51.568;6.364;2022-07-17T01:23:06;12.60;99.90
15407;DHT22;7802;51.568;6.364;2022-07-17T01:25:35;12.60;99.90
15407;DHT22;7802;51.568;6.364;2022-07-17T01:28:04;13.00;99.90
15407;DHT22;7802;51.568;6.364;2022-07-17T01:30:33;12.60;99.90
15407;DHT22;7802;51.568;6.364;2022-07-17T01:33:03;12.50;99.90
15407;DHT22;7802;51.568;6.364;2022-07-17T01:35:31;12.40;99.90
15407;DHT22;7802;51.568;6.364;2022-07-17T01:38:00;12.40;99.90
15407;DHT22;7802;51.568;6.364;2022-07-17T01:40:30;12.90;99.90
15407;DHT22;7802;51.568;6.364;2022-07-17T01:42:58;12.40;99.90
15407;DHT22;7802;51.568;6.364;2022-07-17T01:45:27;13.00;99.90
15407;DHT22;7802;51.568;6.364;2022-07-17T01:47:55;12.30;99.90
15407;DHT22;7802;51.568;6.364;2022-07-17T01:50:23;13.40;99.90
15407;DHT22;7802;51.568;6.364;2022-07-17T01:52:51;12.30;99.90
15407;DHT22;7802;51.568;6.364;2022-07-17T01:55:19;12.20;99.90
15407;DHT22;7802;51.568;6.364;2022-07-17T01:57:50;12.20;99.90
15407;DHT22;7802;51.568;6.364;2022-07-17T02:00:18;13.20;99.90
15407;DHT22;7802;51.568;6.364;2022-07-17T02:02:50;12.10;99.90
15407;DHT22;7802;51.568;6.364;2022-07-17T02:05:18;13.90;99.90
15407;DHT22;7802;51.568;6.364;2022-07-17T02:07:46;13.10;99.90
15407;DHT22;7802;51.568;6.364;2022-07-17T02:10:14;13.00;99.90
15407;DHT22;7802;51.568;6.364;2022-07-17T02:12:43;11.90;99.90
15407;DHT22;7802;51.568;6.364;2022-07-17T02:15:13;12.60;99.90
15407;DHT22;7802;51.568;6.364;2022-07-17T02:17:42;11.80;99.90
15407;DHT22;7802;51.568;6.364;2022-07-17T02:20:11;11.90;99.90
15407;DHT22;7802;51.568;6.364;2022-07-17T02:22:40;11.90;99.90
15407;DHT22;7802;51.568;6.364;2022-07-17T02:25:09;11.90;99.90
15407;DHT22;7802;51.568;6.364;2022-07-17T02:27:38;11.90;99.90
15407;DHT22;7802;51.568;6.364;2022-07-17T02:30:09;11.90;99.90
15407;DHT22;7802;51.568;6.364;2022-07-17T02:32:39;11.90;99.90
15407;DHT22;7802;51.568;6.364;2022-07-17T02:35:09;12.00;99.90
15407;DHT22;7802;51.568;6.364;2022-07-17T02:37:38;11.90;99.90
15407;DHT22;7802;51.568;6.364;2022-07-17T02:40:09;11.90;99.90
15407;DHT22;7802;51.568;6.364;2022-07-17T02:42:37;12.00;99.90
15407;DHT22;7802;51.568;6.364;2022-07-17T02:45:07;12.00;99.90
15407;DHT22;7802;51.568;6.364;2022-07-17T02:47:35;12.00;99.90
15407;DHT22;7802;51.568;6.364;2022-07-17T02:50:08;11.90;99.90
15407;DHT22;7802;51.568;6.364;2022-07-17T02:52:36;11.80;99.90
15407;DHT22;7802;51.568;6.364;2022-07-17T02:55:06;11.70;99.90
15407;DHT22;7802;51.568;6.364;2022-07-17T02:57:34;11.60;99.90
15407;DHT22;7802;51.568;6.364;2022-07-17T03:00:04;11.60;99.90
15407;DHT22;7802;51.568;6.364;2022-07-17T03:02:33;11.60;99.90
15407;DHT22;7802;51.568;6.364;2022-07-17T03:05:01;12.40;99.90
15407;DHT22;7802;51.568;6.364;2022-07-17T03:07:31;12.60;99.90
15407;DHT22;7802;51.568;6.364;2022-07-17T03:09:59;12.00;99.90
15407;DHT22;7802;51.568;6.364;2022-07-17T03:12:27;11.50;99.90
15407;DHT22;7802;51.568;6.364;2022-07-17T03:14:55;11.50;99.90
15407;DHT22;7802;51.568;6.364;2022-07-17T03:17:24;12.40;99.90
15407;DHT22;7802;51.568;6.364;2022-07-17T03:19:52;11.50;99.90
15407;DHT22;7802;51.568;6.364;2022-07-17T03:22:20;11.40;99.90
15407;DHT22;7802;51.568;6.364;2022-07-17T03:24:50;11.40;99.90
15407;DHT22;7802;51.568;6.364;2022-07-17T03:27:18;11.40;99.90
15407;DHT22;7802;51.568;6.364;2022-07-17T03:29:47;11.40;99.90
15407;DHT22;7802;51.568;6.364;2022-07-17T03:32:15;11.30;99.90
15407;DHT22;7802;51.568;6.364;2022-07-17T03:34:43;11.30;99.90
15407;DHT22;7802;51.568;6.364;2022-07-17T03:37:11;12.50;99.90
15407;DHT22;7802;51.568;6.364;2022-07-17T03:39:40;11.30;99.90
15407;DHT22;7802;51.568;6.364;2022-07-17T03:42:10;13.40;99.90
15407;DHT22;7802;51.568;6.364;2022-07-17T03:44:38;11.30;99.90
15407;DHT22;7802;51.568;6.364;2022-07-17T03:47:06;13.50;99.90
15407;DHT22;7802;51.568;6.364;2022-07-17T03:49:34;13.70;99.90
15407;DHT22;7802;51.568;6.364;2022-07-17T03:52:03;12.60;99.90
15407;DHT22;7802;51.568;6.364;2022-07-17T03:54:31;11.40;99.90
15407;DHT22;7802;51.568;6.364;2022-07-17T03:57:00;11.50;99.90
15407;DHT22;7802;51.568;6.364;2022-07-17T03:59:29;11.50;99.90
15407;DHT22;7802;51.568;6.364;2022-07-17T04:01:57;11.50;99.90
15407;DHT22;7802;51.568;6.364;2022-07-17T04:04:25;11.50;99.90
15407;DHT22;7802;51.568;6.364;2022-07-17T04:06:53;11.50;99.90
15407;DHT22;7802;51.568;6.364;2022-07-17T04:09:21;11.60;99.90
15407;DHT22;7802;51.568;6.364;2022-07-17T04:11:50;11.70;99.90
15407;DHT22;7802;51.568;6.364;2022-07-17T04:14:18;11.70;99.90
15407;DHT22;7802;51.568;6.364;2022-07-17T04:16:48;13.20;99.90
15407;DHT22;7802;51.568;6.364;2022-07-17T04:19:16;11.70;99.90
15407;DHT22;7802;51.568;6.364;2022-07-17T04:21:44;12.20;99.90
15407;DHT22;7802;51.568;6.364;2022-07-17T04:24:12;11.60;99.90
15407;DHT22;7802;51.568;6.364;2022-07-17T04:26:41;11.60;99.90
15407;DHT22;7802;51.568;6.364;2022-07-17T04:29:09;11.70;99.90
15407;DHT22;7802;51.568;6.364;2022-07-17T04:31:37;11.70;99.90
15407;DHT22;7802;51.568;6.364;2022-07-17T04:34:07;11.80;99.90
15407;DHT22;7802;51.568;6.364;2022-07-17T04:36:35;11.80;99.90
15407;DHT22;7802;51.568;6.364;2022-07-17T04:39:03;11.90;99.90
15407;DHT22;7802;51.568;6.364;2022-07-17T04:41:31;12.00;99.90
15407;DHT22;7802;51.568;6.364;2022-07-17T04:44:00;12.00;99.90
15407;DHT22;7802;51.568;6.364;2022-07-17T04:46:28;12.20;99.90
15407;DHT22;7802;51.568;6.364;2022-07-17T04:48:57;12.30;99.90
15407;DHT22;7802;51.568;6.364;2022-07-17T04:51:26;12.40;99.90
15407;DHT22;7802;51.568;6.364;2022-07-17T04:53:55;12.50;99.90
15407;DHT22;7802;51.568;6.364;2022-07-17T04:56:23;12.60;99.90
15407;DHT22;7802;51.568;6.364;2022-07-17T04:58:52;13.40;99.90
15407;DHT22;7802;51.568;6.364;2022-07-17T05:01:20;13.80;99.90
15407;DHT22;7802;51.568;6.364;2022-07-17T05:03:49;12.80;99.90
15407;DHT22;7802;51.568;6.364;2022-07-17T05:06:17;12.90;99.90
15407;DHT22;7802;51.568;6.364;2022-07-17T05:08:47;13.10;99.90
15407;DHT22;7802;51.568;6.364;2022-07-17T05:11:15;13.20;99.90
15407;DHT22;7802;51.568;6.364;2022-07-17T05:13:43;15.00;99.90
15407;DHT22;7802;51.568;6.364;2022-07-17T05:16:11;13.50;99.90
15407;DHT22;7802;51.568;6.364;2022-07-17T05:18:40;13.60;99.90
15407;DHT22;7802;51.568;6.364;2022-07-17T05:21:08;13.80;99.90
15407;DHT22;7802;51.568;6.364;2022-07-17T05:23:36;13.70;99.90
15407;DHT22;7802;51.568;6.364;2022-07-17T05:26:06;13.80;99.90
15407;DHT22;7802;51.568;6.364;2022-07-17T05:28:34;15.00;99.90
15407;DHT22;7802;51.568;6.364;2022-07-17T05:31:05;14.20;99.90
15407;DHT22;7802;51.568;6.364;2022-07-17T05:33:33;14.30;99.90
15407;DHT22;7802;51.568;6.364;2022-07-17T05:36:02;14.40;99.90
15407;DHT22;7802;51.568;6.364;2022-07-17T05:38:30;14.40;99.90
15407;DHT22;7802;51.568;6.364;2022-07-17T05:40:58;14.40;99.90
15407;DHT22;7802;51.568;6.364;2022-07-17T05:43:28;14.40;99.90
15407;DHT22;7802;51.568;6.364;2022-07-17T05:45:56;16.10;99.90
15407;DHT22;7802;51.568;6.364;2022-07-17T05:48:26;14.50;99.90
15407;DHT22;7802;51.568;6.364;2022-07-17T05:50:54;15.40;99.90
15407;DHT22;7802;51.568;6.364;2022-07-17T05:53:22;14.60;99.90
15407;DHT22;7802;51.568;6.364;2022-07-17T05:55:50;14.60;99.90
15407;DHT22;7802;51.568;6.364;2022-07-17T05:58:19;15.10;99.90
15407;DHT22;7802;51.568;6.364;2022-07-17T06:00:48;14.70;99.90
15407;DHT22;7802;51.568;6.364;2022-07-17T06:03:17;14.70;99.90
15407;DHT22;7802;51.568;6.364;2022-07-17T06:05:45;15.40;99.90
15407;DHT22;7802;51.568;6.364;2022-07-17T06:08:14;14.90;99.90
15407;DHT22;7802;51.568;6.364;2022-07-17T06:10:42;15.00;99.90
15407;DHT22;7802;51.568;6.364;2022-07-17T06:13:10;15.10;99.90
15407;DHT22;7802;51.568;6.364;2022-07-17T06:15:38;17.40;99.90
15407;DHT22;7802;51.568;6.364;2022-07-17T06:18:09;15.30;99.90
15407;DHT22;7802;51.568;6.364;2022-07-17T06:20:37;15.40;99.90
15407;DHT22;7802;51.568;6.364;2022-07-17T06:23:05;15.50;99.90
15407;DHT22;7802;51.568;6.364;2022-07-17T06:25:33;17.50;99.90
15407;DHT22;7802;51.568;6.364;2022-07-17T06:28:01;15.80;99.90
15407;DHT22;7802;51.568;6.364;2022-07-17T06:30:30;15.90;99.90
15407;DHT22;7802;51.568;6.364;2022-07-17T06:32:58;16.20;99.90
15407;DHT22;7802;51.568;6.364;2022-07-17T06:35:28;17.00;99.90
15407;DHT22;7802;51.568;6.364;2022-07-17T06:37:57;17.90;99.90
15407;DHT22;7802;51.568;6.364;2022-07-17T06:40:25;18.60;99.90
15407;DHT22;7802;51.568;6.364;2022-07-17T06:42:54;19.20;99.90
15407;DHT22;7802;51.568;6.364;2022-07-17T06:45:22;19.90;99.90
15407;DHT22;7802;51.568;6.364;2022-07-17T06:47:51;20.70;99.90
15407;DHT22;7802;51.568;6.364;2022-07-17T06:50:19;21.10;99.90
15407;DHT22;7802;51.568;6.364;2022-07-17T06:52:49;21.90;99.90
15407;DHT22;7802;51.568;6.364;2022-07-17T06:55:17;22.30;99.90
15407;DHT22;7802;51.568;6.364;2022-07-17T06:57:45;22.60;99.90
15407;DHT22;7802;51.568;6.364;2022-07-17T07:00:14;23.10;99.90
15407;DHT22;7802;51.568;6.364;2022-07-17T07:02:45;23.30;99.90
15407;DHT22;7802;51.568;6.364;2022-07-17T07:05:13;23.20;99.90
15407;DHT22;7802;51.568;6.364;2022-07-17T07:07:41;23.20;99.90
15407;DHT22;7802;51.568;6.364;2022-07-17T07:10:10;23.20;99.90
15407;DHT22;7802;51.568;6.364;2022-07-17T07:12:39;22.50;99.90
15407;DHT22;7802;51.568;6.364;2022-07-17T07:15:08;22.40;99.90
15407;DHT22;7802;51.568;6.364;2022-07-17T07:17:39;22.60;99.90
15407;DHT22;7802;51.568;6.364;2022-07-17T07:20:09;22.60;99.90
15407;DHT22;7802;51.568;6.364;2022-07-17T07:22:37;22.60;99.90
15407;DHT22;7802;51.568;6.364;2022-07-17T07:25:06;22.70;99.90
15407;DHT22;7802;51.568;6.364;2022-07-17T07:27:36;22.60;99.90
15407;DHT22;7802;51.568;6.364;2022-07-17T07:30:05;22.40;99.90
15407;DHT22;7802;51.568;6.364;2022-07-17T07:32:36;22.70;99.90
15407;DHT22;7802;51.568;6.364;2022-07-17T07:35:05;23.00;99.90
15407;DHT22;7802;51.568;6.364;2022-07-17T07:37:33;23.10;99.90
15407;DHT22;7802;51.568;6.364;2022-07-17T07:40:01;23.00;99.90
15407;DHT22;7802;51.568;6.364;2022-07-17T07:42:30;23.20;99.90
15407;DHT22;7802;51.568;6.364;2022-07-17T07:45:00;23.30;99.90
15407;DHT22;7802;51.568;6.364;2022-07-17T07:47:28;23.70;99.90
15407;DHT22;7802;51.568;6.364;2022-07-17T07:49:56;23.80;99.90
15407;DHT22;7802;51.568;6.364;2022-07-17T07:52:25;24.00;99.90
15407;DHT22;7802;51.568;6.364;2022-07-17T07:54:53;23.80;99.90
15407;DHT22;7802;51.568;6.364;2022-07-17T07:57:21;24.10;99.90
15407;DHT22;7802;51.568;6.364;2022-07-17T07:59:49;24.40;99.90
15407;DHT22;7802;51.568;6.364;2022-07-17T08:02:19;24.40;98.80
15407;DHT22;7802;51.568;6.364;2022-07-17T08:04:47;24.00;97.90
15407;DHT22;7802;51.568;6.364;2022-07-17T08:07:15;24.20;99.10
15407;DHT22;7802;51.568;6.364;2022-07-17T08:09:43;24.20;98.20
15407;DHT22;7802;51.568;6.364;2022-07-17T08:12:11;24.40;98.50
15407;DHT22;7802;51.568;6.364;2022-07-17T08:14:59;24.50;98.00
15407;DHT22;7802;51.568;6.364;2022-07-17T08:17:28;24.50;98.20
15407;DHT22;7802;51.568;6.364;2022-07-17T08:19:57;24.40;97.30
15407;DHT22;7802;51.568;6.364;2022-07-17T08:22:25;24.50;97.40
15407;DHT22;7802;51.568;6.364;2022-07-17T08:25:13;24.40;96.80
15407;DHT22;7802;51.568;6.364;2022-07-17T08:27:43;24.60;98.20
15407;DHT22;7802;51.568;6.364;2022-07-17T08:30:13;24.80;97.20
15407;DHT22;7802;51.568;6.364;2022-07-17T08:32:43;24.90;96.80
15407;DHT22;7802;51.568;6.364;2022-07-17T08:35:12;25.10;97.10
15407;DHT22;7802;51.568;6.364;2022-07-17T08:37:44;25.40;96.30
15407;DHT22;7802;51.568;6.364;2022-07-17T08:40:20;25.40;96.40
15407;DHT22;7802;51.568;6.364;2022-07-17T08:42:49;25.30;96.80
15407;DHT22;7802;51.568;6.364;2022-07-17T08:45:18;25.70;96.10
15407;DHT22;7802;51.568;6.364;2022-07-17T08:47:50;25.90;96.10
15407;DHT22;7802;51.568;6.364;2022-07-17T08:50:22;25.70;96.50
15407;DHT22;7802;51.568;6.364;2022-07-17T08:52:51;25.50;95.20
15407;DHT22;7802;51.568;6.364;2022-07-17T08:55:19;25.40;96.00
15407;DHT22;7802;51.568;6.364;2022-07-17T08:57:49;25.50;95.70
15407;DHT22;7802;51.568;6.364;2022-07-17T09:00:20;25.30;94.90
15407;DHT22;7802;51.568;6.364;2022-07-17T09:02:55;25.20;95.00
15407;DHT22;7802;51.568;6.364;2022-07-17T09:05:26;25.40;95.00
15407;DHT22;7802;51.568;6.364;2022-07-17T09:07:55;25.70;94.80
15407;DHT22;7802;51.568;6.364;2022-07-17T09:10:34;25.80;94.60
15407;DHT22;7802;51.568;6.364;2022-07-17T09:13:13;25.80;93.70
15407;DHT22;7802;51.568;6.364;2022-07-17T09:15:42;25.90;93.80
15407;DHT22;7802;51.568;6.364;2022-07-17T09:18:14;25.70;94.30
15407;DHT22;7802;51.568;6.364;2022-07-17T09:20:47;26.00;94.60
15407;DHT22;7802;51.568;6.364;2022-07-17T09:23:16;26.30;94.70
15407;DHT22;7802;51.568;6.364;2022-07-17T09:25:47;26.30;93.10
15407;DHT22;7802;51.568;6.364;2022-07-17T09:28:16;26.30;92.20
15407;DHT22;7802;51.568;6.364;2022-07-17T09:30:50;26.30;92.10
15407;DHT22;7802;51.568;6.364;2022-07-17T09:33:21;26.00;91.70
15407;DHT22;7802;51.568;6.364;2022-07-17T09:35:51;26.10;91.50
15407;DHT22;7802;51.568;6.364;2022-07-17T09:38:27;26.00;92.00
15407;DHT22;7802;51.568;6.364;2022-07-17T09:41:03;26.10;92.50
15407;DHT22;7802;51.568;6.364;2022-07-17T09:43:45;26.00;92.20
15407;DHT22;7802;51.568;6.364;2022-07-17T09:46:16;25.90;92.20
15407;DHT22;7802;51.568;6.364;2022-07-17T09:48:48;26.00;91.00
15407;DHT22;7802;51.568;6.364;2022-07-17T09:51:22;26.00;92.10
15407;DHT22;7802;51.568;6.364;2022-07-17T09:53:52;26.10;91.00
15407;DHT22;7802;51.568;6.364;2022-07-17T09:56:22;26.80;92.60
15407;DHT22;7802;51.568;6.364;2022-07-17T09:58:52;27.60;92.20
15407;DHT22;7802;51.568;6.364;2022-07-17T10:01:21;27.70;91.20
15407;DHT22;7802;51.568;6.364;2022-07-17T10:03:51;27.40;88.00
15407;DHT22;7802;51.568;6.364;2022-07-17T10:06:21;26.70;89.10
15407;DHT22;7802;51.568;6.364;2022-07-17T10:08:51;26.60;89.20
15407;DHT22;7802;51.568;6.364;2022-07-17T10:11:20;26.10;90.30
15407;DHT22;7802;51.568;6.364;2022-07-17T10:13:50;26.00;90.70
15407;DHT22;7802;51.568;6.364;2022-07-17T10:16:23;26.00;90.40
15407;DHT22;7802;51.568;6.364;2022-07-17T10:18:55;26.20;91.80
15407;DHT22;7802;51.568;6.364;2022-07-17T10:21:26;26.40;90.90
15407;DHT22;7802;51.568;6.364;2022-07-17T10:24:09;26.40;88.50
15407;DHT22;7802;51.568;6.364;2022-07-17T10:26:39;26.40;89.40
15407;DHT22;7802;51.568;6.364;2022-07-17T10:29:31;26.10;88.80
15407;DHT22;7802;51.568;6.364;2022-07-17T10:32:01;26.20;89.30
15407;DHT22;7802;51.568;6.364;2022-07-17T10:34:44;26.40;89.60
15407;DHT22;7802;51.568;6.364;2022-07-17T10:37:20;26.50;88.70
15407;DHT22;7802;51.568;6.364;2022-07-17T10:40:00;26.50;89.40
15407;DHT22;7802;51.568;6.364;2022-07-17T10:42:50;26.30;88.40
15407;DHT22;7802;51.568;6.364;2022-07-17T10:45:21;26.20;89.40
15407;DHT22;7802;51.568;6.364;2022-07-17T10:47:53;26.50;91.20
15407;DHT22;7802;51.568;6.364;2022-07-17T10:50:26;25.80;87.50
15407;DHT22;7802;51.568;6.364;2022-07-17T10:53:07;26.50;90.10
15407;DHT22;7802;51.568;6.364;2022-07-17T10:55:37;26.60;90.90
15407;DHT22;7802;51.568;6.364;2022-07-17T10:58:15;26.70;88.40
15407;DHT22;7802;51.568;6.364;2022-07-17T11:00:55;26.80;87.70
15407;DHT22;7802;51.568;6.364;2022-07-17T11:03:24;26.40;88.70
15407;DHT22;7802;51.568;6.364;2022-07-17T11:05:53;26.70;90.60
15407;DHT22;7802;51.568;6.364;2022-07-17T11:08:22;27.00;90.00
15407;DHT22;7802;51.568;6.364;2022-07-17T11:10:51;27.20;91.00
15407;DHT22;7802;51.568;6.364;2022-07-17T11:13:19;27.30;90.30
15407;DHT22;7802;51.568;6.364;2022-07-17T11:15:48;27.00;88.20
15407;DHT22;7802;51.568;6.364;2022-07-17T11:18:18;27.10;90.30
15407;DHT22;7802;51.568;6.364;2022-07-17T11:20:54;27.00;87.70
15407;DHT22;7802;51.568;6.364;2022-07-17T11:23:23;26.90;88.90
15407;DHT22;7802;51.568;6.364;2022-07-17T11:25:57;26.80;88.60
15407;DHT22;7802;51.568;6.364;2022-07-17T11:28:31;26.80;88.60
15407;DHT22;7802;51.568;6.364;2022-07-17T11:31:00;26.90;90.40
15407;DHT22;7802;51.568;6.364;2022-07-17T11:33:29;26.80;89.70
15407;DHT22;7802;51.568;6.364;2022-07-17T11:35:58;26.80;90.00
15407;DHT22;7802;51.568;6.364;2022-07-17T11:38:28;26.70;89.00
15407;DHT22;7802;51.568;6.364;2022-07-17T11:40:57;26.60;89.00
15407;DHT22;7802;51.568;6.364;2022-07-17T11:43:28;26.40;90.20
15407;DHT22;7802;51.568;6.364;2022-07-17T11:46:06;26.30;90.20
15407;DHT22;7802;51.568;6.364;2022-07-17T11:48:35;26.10;90.20
15407;DHT22;7802;51.568;6.364;2022-07-17T11:51:05;25.90;88.60
15407;DHT22;7802;51.568;6.364;2022-07-17T11:53:34;25.50;89.60
15407;DHT22;7802;51.568;6.364;2022-07-17T11:56:03;25.50;90.30
15407;DHT22;7802;51.568;6.364;2022-07-17T11:58:41;25.50;89.00
15407;DHT22;7802;51.568;6.364;2022-07-17T12:01:12;25.50;88.70
15407;DHT22;7802;51.568;6.364;2022-07-17T12:03:40;25.40;89.10
15407;DHT22;7802;51.568;6.364;2022-07-17T12:06:10;25.50;88.20
15407;DHT22;7802;51.568;6.364;2022-07-17T12:08:38;25.50;90.60
15407;DHT22;7802;51.568;6.364;2022-07-17T12:11:08;25.60;91.20
15407;DHT22;7802;51.568;6.364;2022-07-17T12:13:41;25.70;91.10
15407;DHT22;7802;51.568;6.364;2022-07-17T12:16:25;25.70;90.90
15407;DHT22;7802;51.568;6.364;2022-07-17T12:19:02;25.60;88.80
15407;DHT22;7802;51.568;6.364;2022-07-17T12:21:35;25.70;87.70
15407;DHT22;7802;51.568;6.364;2022-07-17T12:24:19;25.60;87.30
15407;DHT22;7802;51.568;6.364;2022-07-17T12:26:47;25.60;87.30
15407;DHT22;7802;51.568;6.364;2022-07-17T12:29:16;25.50;86.50
15407;DHT22;7802;51.568;6.364;2022-07-17T12:31:45;25.60;86.40
15407;DHT22;7802;51.568;6.364;2022-07-17T12:34:14;25.50;86.50
15407;DHT22;7802;51.568;6.364;2022-07-17T12:36:43;25.50;87.00
15407;DHT22;7802;51.568;6.364;2022-07-17T12:39:11;25.50;84.60
15407;DHT22;7802;51.568;6.364;2022-07-17T12:41:39;25.40;84.50
15407;DHT22;7802;51.568;6.364;2022-07-17T12:44:08;25.30;85.00
15407;DHT22;7802;51.568;6.364;2022-07-17T12:46:36;25.30;86.00
15407;DHT22;7802;51.568;6.364;2022-07-17T12:49:05;25.30;83.80
15407;DHT22;7802;51.568;6.364;2022-07-17T12:51:33;25.30;82.30
15407;DHT22;7802;51.568;6.364;2022-07-17T12:54:02;25.30;83.40
15407;DHT22;7802;51.568;6.364;2022-07-17T12:56:30;25.30;81.00
15407;DHT22;7802;51.568;6.364;2022-07-17T12:58:59;25.10;81.00
15407;DHT22;7802;51.568;6.364;2022-07-17T13:01:28;25.10;81.40
15407;DHT22;7802;51.568;6.364;2022-07-17T13:03:56;25.00;81.30
15407;DHT22;7802;51.568;6.364;2022-07-17T13:06:24;24.90;81.10
15407;DHT22;7802;51.568;6.364;2022-07-17T13:08:53;24.80;81.50
15407;DHT22;7802;51.568;6.364;2022-07-17T13:11:23;24.90;81.90
15407;DHT22;7802;51.568;6.364;2022-07-17T13:13:51;25.00;82.20
15407;DHT22;7802;51.568;6.364;2022-07-17T13:16:19;25.10;80.70
15407;DHT22;7802;51.568;6.364;2022-07-17T13:18:48;25.10;79.80
15407;DHT22;7802;51.568;6.364;2022-07-17T13:21:17;25.00;77.80
15407;DHT22;7802;51.568;6.364;2022-07-17T13:23:45;25.00;78.80
15407;DHT22;7802;51.568;6.364;2022-07-17T13:26:13;26.00;79.40
15407;DHT22;7802;51.568;6.364;2022-07-17T13:28:46;25.00;78.10
15407;DHT22;7802;51.568;6.364;2022-07-17T13:31:15;25.00;78.40
15407;DHT22;7802;51.568;6.364;2022-07-17T13:33:43;25.00;78.60
15407;DHT22;7802;51.568;6.364;2022-07-17T13:36:12;25.00;79.90
15407;DHT22;7802;51.568;6.364;2022-07-17T13:38:40;25.10;80.80
15407;DHT22;7802;51.568;6.364;2022-07-17T13:41:09;25.10;79.80
15407;DHT22;7802;51.568;6.364;2022-07-17T13:43:38;25.20;77.70
15407;DHT22;7802;51.568;6.364;2022-07-17T13:46:08;25.10;78.80
15407;DHT22;7802;51.568;6.364;2022-07-17T13:48:36;25.20;80.40
15407;DHT22;7802;51.568;6.364;2022-07-17T13:51:04;25.30;79.20
15407;DHT22;7802;51.568;6.364;2022-07-17T13:53:33;25.30;80.60
15407;DHT22;7802;51.568;6.364;2022-07-17T13:56:03;25.20;83.90
15407;DHT22;7802;51.568;6.364;2022-07-17T13:58:31;25.20;76.40
15407;DHT22;7802;51.568;6.364;2022-07-17T14:01:00;25.20;75.50
15407;DHT22;7802;51.568;6.364;2022-07-17T14:03:30;25.10;75.50
15407;DHT22;7802;51.568;6.364;2022-07-17T14:05:58;25.20;76.10
15407;DHT22;7802;51.568;6.364;2022-07-17T14:08:26;25.20;76.20
15407;DHT22;7802;51.568;6.364;2022-07-17T14:10:55;25.30;76.50
15407;DHT22;7802;51.568;6.364;2022-07-17T14:13:23;25.10;75.10
15407;DHT22;7802;51.568;6.364;2022-07-17T14:15:51;25.20;76.50
15407;DHT22;7802;51.568;6.364;2022-07-17T14:18:19;25.00;76.70
15407;DHT22;7802;51.568;6.364;2022-07-17T14:20:49;25.00;76.50
15407;DHT22;7802;51.568;6.364;2022-07-17T14:23:17;25.10;78.10
15407;DHT22;7802;51.568;6.364;2022-07-17T14:25:45;25.20;76.40
15407;DHT22;7802;51.568;6.364;2022-07-17T14:28:13;25.20;76.00
15407;DHT22;7802;51.568;6.364;2022-07-17T14:30:42;25.10;73.80
15407;DHT22;7802;51.568;6.364;2022-07-17T14:33:10;25.10;75.80
15407;DHT22;7802;51.568;6.364;2022-07-17T14:35:38;25.30;75.00
15407;DHT22;7802;51.568;6.364;2022-07-17T14:38:08;25.10;73.30
15407;DHT22;7802;51.568;6.364;2022-07-17T14:40:36;25.20;70.80
15407;DHT22;7802;51.568;6.364;2022-07-17T14:43:04;25.20;70.20
15407;DHT22;7802;51.568;6.364;2022-07-17T14:45:32;25.40;71.10
15407;DHT22;7802;51.568;6.364;2022-07-17T14:48:00;25.30;71.10
15407;DHT22;7802;51.568;6.364;2022-07-17T14:50:28;25.20;71.60
15407;DHT22;7802;51.568;6.364;2022-07-17T14:52:56;25.30;73.30
15407;DHT22;7802;51.568;6.364;2022-07-17T14:55:26;25.20;73.50
15407;DHT22;7802;51.568;6.364;2022-07-17T14:57:54;25.50;71.90
15407;DHT22;7802;51.568;6.364;2022-07-17T15:00:22;25.20;72.80
15407;DHT22;7802;51.568;6.364;2022-07-17T15:02:50;25.20;73.00
15407;DHT22;7802;51.568;6.364;2022-07-17T15:05:18;25.20;73.20
15407;DHT22;7802;51.568;6.364;2022-07-17T15:07:47;25.10;72.10
15407;DHT22;7802;51.568;6.364;2022-07-17T15:10:15;25.40;73.20
15407;DHT22;7802;51.568;6.364;2022-07-17T15:12:44;25.40;72.70
15407;DHT22;7802;51.568;6.364;2022-07-17T15:15:12;25.20;72.40
15407;DHT22;7802;51.568;6.364;2022-07-17T15:17:41;25.20;75.20
15407;DHT22;7802;51.568;6.364;2022-07-17T15:20:10;25.30;73.20
15407;DHT22;7802;51.568;6.364;2022-07-17T15:22:39;25.20;75.80
15407;DHT22;7802;51.568;6.364;2022-07-17T15:25:07;25.20;76.30
15407;DHT22;7802;51.568;6.364;2022-07-17T15:27:35;25.20;75.80
15407;DHT22;7802;51.568;6.364;2022-07-17T15:30:06;25.20;75.00
15407;DHT22;7802;51.568;6.364;2022-07-17T15:32:34;25.10;75.80
15407;DHT22;7802;51.568;6.364;2022-07-17T15:35:05;25.10;76.80
15407;DHT22;7802;51.568;6.364;2022-07-17T15:37:33;25.00;79.00
15407;DHT22;7802;51.568;6.364;2022-07-17T15:40:01;25.00;77.50
15407;DHT22;7802;51.568;6.364;2022-07-17T15:42:29;25.10;77.10
15407;DHT22;7802;51.568;6.364;2022-07-17T15:44:57;25.20;78.30
15407;DHT22;7802;51.568;6.364;2022-07-17T15:47:28;25.20;78.30
15407;DHT22;7802;51.568;6.364;2022-07-17T15:49:56;25.10;78.30
15407;DHT22;7802;51.568;6.364;2022-07-17T15:52:24;25.10;78.30
15407;DHT22;7802;51.568;6.364;2022-07-17T15:54:52;25.10;77.30
15407;DHT22;7802;51.568;6.364;2022-07-17T15:57:20;24.90;77.70
15407;DHT22;7802;51.568;6.364;2022-07-17T15:59:50;25.00;77.40